Time;durP1;ratioP1;P1;durP2;ratioP2;P2;SDS_P1;SDS_P2;PMS_P1;PMS_P2;Temp;Humidity;BMP_temperature;BMP_pressure;BME280_temperature;BME280_humidity;BME280_pressure;Samples;Min_cycle;Max_cycle;Signal;HPM_P1;HPM_P2
2021/04/23 00:08:58;;;;;;;9.85;3.63;;;;;;;9.92;56.42;101128.16;5869480;24;20018;-78
2021/04/23 00:12:20;;;;;;;11.88;4.20;;;;;;;9.88;56.49;101124.25;5909418;23;20020;-78
2021/04/23 00:15:50;;;;;;;12.30;4.53;;;;;;;9.86;56.75;101118.13;5900052;24;20013;-78
2021/04/23 00:19:17;;;;;;;10.40;4.00;;;;;;;9.85;57.02;101124.81;5952666;23;20035;-78
2021/04/23 00:24:53;;;;;;;10.82;4.00;;;;;;;9.80;56.77;101117.28;6138754;23;20091;-78
2021/04/23 00:31:04;;;;;;;11.47;3.90;;;;;;;9.70;56.99;101110.91;6110569;23;20470;-78
2021/04/23 00:33:57;;;;;;;12.13;4.10;;;;;;;9.71;56.75;101116.16;6160489;23;20013;-78
2021/04/23 00:36:47;;;;;;;;;;;;;;;;;;;;;
2021/04/23 00:39:35;;;;;;;10.82;4.05;;;;;;;9.63;57.28;101117.53;6137644;23;20012;-78
2021/04/23 00:42:15;;;;;;;10.02;3.80;;;;;;;9.61;57.08;101117.00;6133973;23;20013;-78
2021/04/23 00:44:43;;;;;;;;;;;;;;;9.56;56.96;101110.59;6160725;23;20009;-77
2021/04/23 00:47:30;;;;;;;14.88;4.38;;;;;;;9.53;56.87;101111.16;6141640;22;20244;-78
2021/04/23 00:50:44;;;;;;;11.32;3.90;;;;;;;9.50;57.10;101112.53;6253239;22;20003;-78
2021/04/23 00:53:29;;;;;;;12.05;3.72;;;;;;;9.50;57.03;101111.66;6258980;22;20014;-78
2021/04/23 00:56:14;;;;;;;11.65;3.50;;;;;;;9.45;57.28;101114.44;6254407;22;20015;-78
2021/04/23 00:59:12;;;;;;;10.75;3.70;;;;;;;9.45;57.31;101109.72;6142766;23;20021;-78
2021/04/23 01:02:12;;;;;;;15.02;3.90;;;;;;;9.43;57.25;101105.56;6181627;23;20338;-78
2021/04/23 01:05:12;;;;;;;16.17;4.22;;;;;;;9.37;57.37;101101.94;6183926;23;20457;-78
2021/04/23 01:08:15;;;;;;;12.32;4.13;;;;;;;9.25;57.59;101098.53;6145039;23;20020;-78
2021/04/23 01:10:51;;;;;;;14.35;4.00;;;;;;;9.27;57.44;101096.34;6157748;23;20030;-78
2021/04/23 01:13:46;;;;;;;16.98;3.90;;;;;;;9.15;57.46;101094.63;6214028;23;20012;-78
2021/04/23 01:16:45;;;;;;;14.63;3.85;;;;;;;9.16;57.67;101101.00;6165456;23;20070;-78
2021/04/23 01:19:44;;;;;;;10.20;3.90;;;;;;;9.11;57.81;101099.06;6168850;23;20079;-78
2021/04/23 01:22:52;;;;;;;16.73;4.32;;;;;;;9.12;57.83;101095.16;6208503;23;20341;-79
2021/04/23 01:25:59;;;;;;;;;;;;;;;;;;;;;
2021/04/23 01:28:56;;;;;;;15.57;4.07;;;;;;;9.09;57.84;101090.19;6200891;22;20031;-78
2021/04/23 01:32:22;;;;;;;15.38;4.70;;;;;;;9.06;58.03;101087.13;6299478;22;20027;-78
2021/04/23 01:34:51;;;;;;;13.43;3.78;;;;;;;9.04;57.97;101087.38;6255075;22;20012;-78
2021/04/23 01:38:01;;;;;;;11.45;3.80;;;;;;;9.01;58.14;101082.38;6258927;22;20084;-78
2021/04/23 01:40:47;;;;;;;12.75;3.95;;;;;;;8.94;58.27;101077.09;6253981;22;20022;-78
2021/04/23 01:43:35;;;;;;;12.27;4.28;;;;;;;8.98;58.15;101077.38;6232768;22;20015;-78
2021/04/23 01:46:15;;;;;;;13.65;4.45;;;;;;;8.92;58.01;101073.75;6261720;22;20343;-77
2021/04/23 01:48:51;;;;;;;16.40;4.53;;;;;;;8.86;58.45;101076.75;6232385;22;20007;-78
2021/04/23 01:51:17;;;;;;;11.40;4.18;;;;;;;8.89;58.61;101067.91;6284846;22;20011;-77
2021/04/23 01:53:45;;;;;;;13.13;3.83;;;;;;;8.91;58.63;101072.09;6282927;22;20086;-78
2021/04/23 01:56:11;;;;;;;12.25;3.83;;;;;;;8.88;58.61;101066.22;6308794;22;20049;-77
2021/04/23 01:58:46;;;;;;;12.25;4.80;;;;;;;8.84;58.50;101076.19;6296031;22;20603;-77
2021/04/23 02:01:14;;;;;;;12.40;4.35;;;;;;;8.78;58.51;101072.56;6316751;22;20011;-77
2021/04/23 02:03:40;;;;;;;12.07;4.35;;;;;;;8.74;58.77;101076.97;6315318;22;20052;-78
2021/04/23 02:06:12;;;;;;;13.63;4.00;;;;;;;8.76;58.70;101069.22;6341863;22;20300;-77
2021/04/23 02:08:43;;;;;;;16.77;4.55;;;;;;;8.75;58.89;101077.78;6315962;22;20003;-77
2021/04/23 02:11:13;;;;;;;14.35;4.25;;;;;;;8.71;58.93;101078.31;6290142;22;20368;-78
2021/04/23 02:14:01;;;;;;;17.13;4.55;;;;;;;8.68;59.01;101078.88;6263316;22;20443;-77
2021/04/23 02:16:35;;;;;;;13.30;4.20;;;;;;;8.68;59.04;101078.03;6291935;22;20036;-78
2021/04/23 02:19:17;;;;;;;12.18;4.43;;;;;;;8.69;58.94;101086.09;6315636;22;20007;-77
2021/04/23 02:21:55;;;;;;;15.35;4.20;;;;;;;8.61;59.46;101085.72;6315666;22;20021;-78
2021/04/23 02:24:31;;;;;;;14.82;5.65;;;;;;;8.61;59.14;101075.50;6280979;22;20015;-77
2021/04/23 02:27:01;;;;;;;14.55;4.18;;;;;;;8.58;59.30;101078.81;6265488;22;20034;-77
2021/04/23 02:29:51;;;;;;;18.15;4.30;;;;;;;8.53;59.57;101087.09;6292380;22;20009;-78
2021/04/23 02:32:22;;;;;;;16.25;4.25;;;;;;;8.52;59.65;101085.41;6317977;22;20038;-78
2021/04/23 02:35:02;;;;;;;15.18;4.00;;;;;;;8.52;59.67;101088.16;6317381;22;20096;-78
2021/04/23 02:37:48;;;;;;;12.60;4.57;;;;;;;8.46;59.67;101084.53;6341889;22;20011;-78
2021/04/23 02:40:30;;;;;;;15.13;4.78;;;;;;;8.49;59.83;101091.47;6263957;22;20086;-78
2021/04/23 02:43:03;;;;;;;12.23;4.15;;;;;;;8.50;59.74;101087.63;6341678;22;20082;-78
2021/04/23 02:45:36;;;;;;;11.35;4.20;;;;;;;8.48;59.75;101081.50;6264976;22;20026;-78
2021/04/23 02:48:07;;;;;;;14.32;4.50;;;;;;;8.45;59.85;101084.81;6265503;22;20011;-78
2021/04/23 02:50:52;;;;;;;13.68;4.50;;;;;;;8.47;59.74;101077.09;6315648;22;20026;-78
2021/04/23 02:53:18;;;;;;;12.88;4.50;;;;;;;8.46;59.62;101076.22;6318640;22;20466;-78
2021/04/23 02:55:46;;;;;;;13.38;4.22;;;;;;;8.45;59.90;101082.03;6289050;22;20006;-78
2021/04/23 02:58:29;;;;;;;11.18;3.83;;;;;;;8.43;60.01;101076.75;6289767;22;20002;-78
2021/04/23 03:01:01;;;;;;;15.05;3.95;;;;;;;8.42;59.97;101082.59;6340573;22;20014;-78
2021/04/23 03:03:41;;;;;;;16.15;4.13;;;;;;;8.40;59.91;101084.78;6290860;22;20379;-78
2021/04/23 03:06:10;;;;;;;15.32;4.93;;;;;;;8.33;60.13;101087.75;6267960;22;20013;-78
2021/04/23 03:08:40;;;;;;;17.23;4.70;;;;;;;8.36;59.82;101076.16;6290079;22;20086;-78
2021/04/23 03:11:18;;;;;;;10.70;3.78;;;;;;;8.33;60.00;101076.69;6316065;22;20051;-78
2021/04/23 03:13:57;;;;;;;16.05;4.82;;;;;;;8.33;59.98;101076.69;6290743;22;20010;-78
2021/04/23 03:16:25;;;;;;;16.30;4.38;;;;;;;8.27;60.25;101070.28;6293957;22;20297;-78
2021/04/23 03:19:02;;;;;;;14.70;4.32;;;;;;;8.27;60.22;101073.03;6315956;22;20002;-77
2021/04/23 03:21:42;;;;;;;10.57;4.57;;;;;;;8.28;60.10;101077.47;6291267;22;20037;-77
2021/04/23 03:24:11;;;;;;;12.35;3.92;;;;;;;8.20;60.19;101069.66;6265325;22;20045;-78
2021/04/23 03:26:40;;;;;;;12.45;3.92;;;;;;;8.21;60.50;101068.53;6264883;22;20094;-77
2021/04/23 03:29:09;;;;;;;14.68;3.85;;;;;;;8.21;60.26;101076.84;6263672;22;20010;-78
2021/04/23 03:31:35;;;;;;;15.15;4.53;;;;;;;8.21;60.26;101068.53;6264234;22;20034;-78
2021/04/23 03:34:07;;;;;;;14.18;4.10;;;;;;;8.20;60.21;101071.59;6289179;22;20339;-78
2021/04/23 03:36:35;;;;;;;14.18;3.90;;;;;;;8.17;60.34;101072.94;6314703;22;20007;-78
2021/04/23 03:39:00;;;;;;;11.60;4.22;;;;;;;8.16;60.24;101079.59;6314128;22;20435;-78
2021/04/23 03:41:29;;;;;;;15.00;4.47;;;;;;;8.17;60.41;101067.41;6289069;22;20026;-78
2021/04/23 03:43:55;;;;;;;12.18;4.00;;;;;;;8.12;60.36;101067.38;6264078;22;20045;-78
2021/04/23 03:46:23;;;;;;;14.77;4.25;;;;;;;8.12;60.48;101074.84;6263083;22;20011;-78
2021/04/23 03:48:49;;;;;;;14.52;4.47;;;;;;;8.10;60.65;101072.31;6289029;22;20006;-78
2021/04/23 03:51:17;;;;;;;15.68;4.40;;;;;;;8.07;60.40;101076.44;6288803;22;20006;-77
2021/04/23 03:53:46;;;;;;;13.50;3.85;;;;;;;8.08;60.37;101074.53;6289158;22;20006;-78
2021/04/23 03:56:27;;;;;;;12.80;4.40;;;;;;;8.08;60.45;101074.53;6288376;22;20007;-78
2021/04/23 03:58:58;;;;;;;11.02;4.40;;;;;;;7.97;60.73;101078.31;6265932;22;20024;-78
2021/04/23 04:01:34;;;;;;;13.25;3.97;;;;;;;7.99;60.93;101073.34;6268019;22;20060;-78
2021/04/23 04:04:03;;;;;;;13.38;5.07;;;;;;;7.94;60.98;101074.13;6289379;22;20003;-78
2021/04/23 04:06:31;;;;;;;12.52;3.97;;;;;;;7.91;60.81;101073.81;6264797;22;20007;-78
2021/04/23 04:08:57;;;;;;;14.55;4.65;;;;;;;7.86;61.06;101065.50;6237838;22;20002;-78
2021/04/23 04:11:28;;;;;;;15.48;4.53;;;;;;;7.89;61.00;101068.56;6262798;22;20052;-78
2021/04/23 04:14:00;;;;;;;9.60;4.00;;;;;;;7.86;61.04;101079.31;6290826;22;20026;-78
2021/04/23 04:16:30;;;;;;;12.15;4.13;;;;;;;7.79;61.23;101072.03;6291066;22;20049;-78
2021/04/23 04:19:05;;;;;;;15.00;4.22;;;;;;;7.82;61.26;101077.03;6315243;22;20003;-78
2021/04/23 04:21:34;;;;;;;13.38;4.30;;;;;;;7.80;61.38;101073.72;6316221;22;20462;-78
2021/04/23 04:24:00;;;;;;;15.63;4.07;;;;;;;7.84;60.97;101080.41;6314681;22;20017;-78
2021/04/23 04:26:28;;;;;;;14.88;5.22;;;;;;;7.82;61.18;101077.03;6262543;22;19998;-78
2021/04/23 04:28:56;;;;;;;17.35;4.00;;;;;;;7.79;61.40;101082.28;6315165;22;20028;-78
2021/04/23 04:31:31;;;;;;;13.93;4.45;;;;;;;7.76;61.17;101077.28;6292469;22;20336;-78
2021/04/23 04:34:01;;;;;;;10.57;4.00;;;;;;;7.81;61.22;101080.09;6263899;22;20002;-78
2021/04/23 04:36:30;;;;;;;11.57;4.00;;;;;;;7.71;61.40;101080.81;6340702;22;20033;-78
2021/04/23 04:38:56;;;;;;;12.57;4.32;;;;;;;7.72;61.47;101082.50;6262424;22;20011;-78
2021/04/23 04:41:21;;;;;;;12.07;4.13;;;;;;;7.72;61.45;101081.66;6314156;22;20090;-78
2021/04/23 04:43:52;;;;;;;17.00;4.47;;;;;;;7.71;61.39;101080.81;6288089;22;20007;-78
2021/04/23 04:46:26;;;;;;;14.60;4.07;;;;;;;7.70;61.33;101083.84;6315202;22;20002;-78
2021/04/23 04:49:01;;;;;;;18.00;4.82;;;;;;;7.68;61.43;101086.88;6262513;22;20007;-78
2021/04/23 04:51:35;;;;;;;12.55;4.20;;;;;;;7.65;61.54;101087.38;6315489;22;20397;-78
2021/04/23 04:54:13;;;;;;;15.10;4.65;;;;;;;7.65;61.65;101075.50;6340715;22;19999;-78
2021/04/23 04:56:39;;;;;;;14.55;4.10;;;;;;;7.65;61.51;101076.34;6293302;22;20003;-78
2021/04/23 04:59:40;;;;;;;11.90;4.07;;;;;;;7.64;61.73;101079.38;6273815;22;20006;-78
2021/04/23 05:02:06;;;;;;;12.52;4.30;;;;;;;7.58;61.42;101084.84;6290004;22;20003;-78
2021/04/23 05:04:46;;;;;;;20.00;4.97;;;;;;;7.56;61.80;101089.78;6316627;22;20003;-78
2021/04/23 05:07:25;;;;;;;13.95;4.00;;;;;;;7.52;62.00;101082.25;6292765;22;20011;-78
2021/04/23 05:10:02;;;;;;;16.10;4.22;;;;;;;7.56;61.97;101088.97;6263368;22;20006;-78
2021/04/23 05:12:44;;;;;;;16.35;4.50;;;;;;;7.53;62.14;101083.97;6274172;22;20423;-78
2021/04/23 05:15:52;;;;;;;;;;;;;;;;;;;;;
2021/04/23 05:18:40;;;;;;;14.00;4.75;;;;;;;7.46;62.37;101080.53;6338075;22;20084;-78
2021/04/23 05:21:14;;;;;;;13.35;4.13;;;;;;;7.48;62.34;101086.66;6340037;22;20014;-78
2021/04/23 05:23:40;;;;;;;9.68;3.97;;;;;;;7.51;62.27;101086.13;6317946;22;20056;-78
2021/04/23 05:26:09;;;;;;;15.70;4.35;;;;;;;7.47;62.63;101085.00;6289475;22;20010;-78
2021/04/23 05:28:35;;;;;;;12.25;4.05;;;;;;;7.55;62.51;101084.50;6290492;22;20011;-77
2021/04/23 05:31:06;;;;;;;17.15;4.65;;;;;;;7.58;62.28;101092.31;6289791;22;20022;-78
2021/04/23 05:33:36;;;;;;;12.85;4.32;;;;;;;7.65;62.28;101086.56;6316565;22;19999;-78
2021/04/23 05:36:02;;;;;;;13.55;4.45;;;;;;;7.66;62.29;101088.22;6240100;22;20017;-78
2021/04/23 05:38:31;;;;;;;12.02;4.45;;;;;;;7.75;62.23;101094.97;6316062;22;20007;-78
2021/04/23 05:40:59;;;;;;;10.82;3.95;;;;;;;7.83;61.91;101094.50;6240363;22;20098;-78
2021/04/23 05:43:27;;;;;;;14.45;4.05;;;;;;;7.95;61.67;101097.94;6263819;22;20006;-78
2021/04/23 05:45:56;;;;;;;12.30;4.43;;;;;;;8.02;61.64;101086.63;6264941;22;20010;-78
2021/04/23 05:48:22;;;;;;;11.35;4.05;;;;;;;8.09;61.77;101098.34;6289123;22;20090;-78
2021/04/23 05:50:50;;;;;;;13.02;4.10;;;;;;;8.17;61.62;101097.84;6259382;22;19999;-77
2021/04/23 05:53:18;;;;;;;16.33;4.68;;;;;;;8.28;61.02;101094.06;6264248;22;20098;-78
2021/04/23 05:55:47;;;;;;;12.32;4.40;;;;;;;8.42;60.65;101090.88;6264115;22;20010;-78
2021/04/23 05:58:12;;;;;;;11.32;4.18;;;;;;;8.49;60.69;101097.00;6290343;22;20002;-78
2021/04/23 06:00:40;;;;;;;11.23;4.00;;;;;;;8.61;60.43;101099.56;6289246;22;20010;-78
2021/04/23 06:03:06;;;;;;;16.85;4.80;;;;;;;8.70;60.20;101098.81;6290006;22;20006;-78
2021/04/23 06:05:32;;;;;;;14.00;4.63;;;;;;;8.80;60.02;101094.44;6315940;22;20037;-78
2021/04/23 06:08:00;;;;;;;19.10;4.15;;;;;;;8.93;60.13;101107.81;6264120;22;20387;-78
2021/04/23 06:10:42;;;;;;;16.95;4.38;;;;;;;9.09;59.60;101101.25;6291240;22;20078;-78
2021/04/23 06:13:24;;;;;;;12.98;4.30;;;;;;;9.23;59.38;101096.06;6291860;22;20044;-78
2021/04/23 06:16:00;;;;;;;15.10;4.60;;;;;;;9.34;58.93;101103.31;6315395;22;20034;-78
2021/04/23 06:18:42;;;;;;;11.32;4.13;;;;;;;9.48;58.79;101102.81;6264519;22;20002;-78
2021/04/23 06:21:08;;;;;;;12.27;4.60;;;;;;;9.65;57.89;101102.56;6317360;22;20007;-78
2021/04/23 06:23:37;;;;;;;11.55;4.13;;;;;;;9.78;57.99;101102.88;6289610;22;20323;-78
2021/04/23 06:26:14;;;;;;;13.20;4.53;;;;;;;9.89;57.51;101103.75;6290223;22;20003;-78
2021/04/23 06:28:48;;;;;;;19.27;4.40;;;;;;;9.94;56.55;101103.72;6266136;22;20010;-79
2021/04/23 06:31:25;;;;;;;15.40;4.15;;;;;;;10.07;56.90;101114.28;6315126;22;20022;-79
2021/04/23 06:33:59;;;;;;;13.02;4.10;;;;;;;10.19;56.65;101118.75;6266895;22;20038;-79
2021/04/23 06:36:44;;;;;;;14.00;4.22;;;;;;;10.32;56.41;101121.00;6317433;22;20010;-78
2021/04/23 06:39:27;;;;;;;15.35;4.22;;;;;;;10.49;56.35;101117.94;6266098;22;20018;-78
2021/04/23 06:42:15;;;;;;;14.05;5.00;;;;;;;10.56;55.78;101124.06;6318688;22;20552;-78
2021/04/23 06:45:02;;;;;;;14.52;4.57;;;;;;;10.59;55.56;101123.50;6316386;22;19999;-78
2021/04/23 06:51:20;;;;;;;15.77;4.32;;;;;;;10.93;55.29;101134.81;6341871;22;20002;-78
2021/04/23 06:54:17;;;;;;;15.47;4.20;;;;;;;11.09;55.04;101127.28;6265591;22;20003;-79
2021/04/23 06:57:25;;;;;;;;;;;;;;;;;;;;;
2021/04/23 07:04:39;;;;;;;11.32;3.72;;;;;;;11.74;53.82;101135.63;6227895;23;20073;-79
2021/04/23 07:07:42;;;;;;;12.55;3.55;;;;;;;11.96;53.82;101142.78;6134176;23;20043;-78
2021/04/23 07:10:58;;;;;;;9.88;3.55;;;;;;;12.16;53.46;101150.97;6054690;23;20343;-79
2021/04/23 07:37:29;;;;;;;15.82;4.38;;;;;;;13.26;51.55;101139.41;6333427;22;20101;-81
2021/04/23 07:39:55;;;;;;;12.82;4.43;;;;;;;13.34;51.15;101142.38;6261214;22;20010;-81
2021/04/23 07:42:20;;;;;;;13.48;4.20;;;;;;;13.48;50.59;101144.44;6315306;22;20014;-80
2021/04/23 07:44:55;;;;;;;15.00;3.85;;;;;;;13.58;50.29;101138.75;6258392;22;20007;-81
2021/04/23 07:47:21;;;;;;;10.95;4.07;;;;;;;13.66;50.32;101146.44;6277125;22;20005;-81
2021/04/23 07:49:47;;;;;;;14.18;3.97;;;;;;;13.74;49.98;101134.63;6263454;22;19995;-81
2021/04/23 07:52:13;;;;;;;12.68;4.72;;;;;;;13.77;49.56;101141.56;6262413;22;20060;-81
2021/04/23 07:54:39;;;;;;;11.68;4.13;;;;;;;13.88;49.07;101139.47;6232696;22;20011;-81
2021/04/23 07:57:05;;;;;;;10.68;3.78;;;;;;;14.05;49.48;101145.34;6219322;22;20007;-81
2021/04/23 07:59:31;;;;;;;12.32;4.30;;;;;;;14.14;49.26;101145.50;6314382;22;20011;-81
2021/04/23 08:02:00;;;;;;;14.90;4.57;;;;;;;14.20;49.20;101147.88;6264707;22;20082;-81
2021/04/23 08:04:27;;;;;;;13.98;3.97;;;;;;;14.25;49.26;101135.81;6289194;22;20477;-81
2021/04/23 08:06:52;;;;;;;11.18;4.03;;;;;;;14.30;49.43;101139.34;6263536;22;20041;-81
2021/04/23 08:09:18;;;;;;;13.60;3.85;;;;;;;14.40;49.29;101137.53;6314294;22;20002;-80
2021/04/23 08:11:43;;;;;;;11.00;3.90;;;;;;;14.53;49.41;101136.78;6262721;22;20003;-81
2021/04/23 08:14:09;;;;;;;12.18;4.05;;;;;;;14.57;48.93;101151.81;6289007;22;20010;-81
2021/04/23 08:16:35;;;;;;;10.35;4.40;;;;;;;14.58;48.64;101147.06;6288618;22;20034;-81
2021/04/23 08:19:01;;;;;;;12.18;4.15;;;;;;;14.77;49.01;101147.84;6259063;22;20015;-80
2021/04/23 08:21:27;;;;;;;11.05;4.28;;;;;;;14.85;48.35;101146.28;6288833;22;20350;-80
2021/04/23 08:23:53;;;;;;;12.65;4.60;;;;;;;14.91;48.57;101140.31;6237683;22;20010;-80
2021/04/23 08:26:18;;;;;;;16.30;3.90;;;;;;;15.03;50.04;101142.59;6257319;22;20431;-79
2021/04/23 08:28:44;;;;;;;11.00;3.83;;;;;;;15.15;50.80;101136.50;6225334;22;20110;-76
2021/04/23 08:31:10;;;;;;;12.27;4.50;;;;;;;15.19;50.00;101124.38;6286522;22;20466;-80
2021/04/23 08:33:38;;;;;;;12.82;4.65;;;;;;;15.29;49.80;101125.31;6257994;22;20320;-81
2021/04/23 09:46:24;;;;;;;13.27;5.20;;;;;;;17.87;44.76;101111.75;6341406;22;20038;-81
2021/04/23 09:48:49;;;;;;;12.95;6.22;;;;;;;18.07;44.90;101099.84;6341013;22;20058;-79
2021/04/23 09:51:18;;;;;;;15.85;5.55;;;;;;;18.30;45.18;101103.34;6313768;22;20439;-80
2021/04/23 09:53:44;;;;;;;13.35;5.30;;;;;;;18.34;45.43;101100.69;6287930;22;20003;-79
2021/04/23 09:56:09;;;;;;;10.95;5.13;;;;;;;18.52;44.97;101102.28;6341398;22;20014;-79
2021/04/23 09:58:35;;;;;;;12.48;5.50;;;;;;;18.58;45.01;101099.31;6287810;22;20011;-78
2021/04/23 10:01:02;;;;;;;12.73;5.40;;;;;;;18.63;44.28;101107.56;6261657;22;20420;-79
2021/04/23 10:03:31;;;;;;;11.23;5.40;;;;;;;18.74;44.35;101101.28;6341385;22;20003;-78
2021/04/23 10:05:57;;;;;;;14.30;5.68;;;;;;;18.75;44.56;101093.69;6313764;22;20386;-79
2021/04/23 10:08:24;;;;;;;13.23;4.90;;;;;;;18.84;44.44;101102.94;6314531;22;20003;-78
2021/04/23 10:10:51;;;;;;;14.93;5.95;;;;;;;18.85;44.14;101096.13;6315458;22;20030;-80
2021/04/23 10:13:16;;;;;;;12.05;5.55;;;;;;;18.87;43.54;101095.81;6289723;22;20328;-79
2021/04/23 10:15:43;;;;;;;14.23;5.88;;;;;;;18.91;43.61;101085.50;6315399;22;20006;-80
2021/04/23 10:18:10;;;;;;;11.90;4.90;;;;;;;19.04;44.15;101086.47;6290182;22;20106;-79
2021/04/23 10:20:43;;;;;;;12.38;4.50;;;;;;;19.10;44.46;101099.19;6264525;22;20331;-79
2021/04/23 10:23:14;;;;;;;11.55;4.55;;;;;;;19.20;43.72;101094.00;6264082;22;20419;-77
2021/04/23 10:25:40;;;;;;;15.57;4.95;;;;;;;19.28;43.90;101091.47;6290745;22;20056;-78
2021/04/23 10:28:09;;;;;;;16.23;4.95;;;;;;;19.29;42.98;101110.84;6315797;22;20007;-76
2021/04/23 10:30:39;;;;;;;17.17;5.45;;;;;;;19.44;43.14;101081.28;6315454;22;20007;-78
2021/04/23 10:33:09;;;;;;;8.80;4.40;;;;;;;19.37;41.24;101090.28;6287298;22;20435;-78
2021/04/23 10:35:35;;;;;;;12.63;4.53;;;;;;;19.48;41.96;101081.44;6315660;22;20007;-77
2021/04/23 10:38:03;;;;;;;12.85;4.22;;;;;;;19.51;41.39;101081.59;6342491;22;20041;-76
2021/04/23 10:40:28;;;;;;;11.25;5.00;;;;;;;19.63;41.22;101078.03;6334159;22;20040;-78
2021/04/23 10:43:06;;;;;;;13.48;4.43;;;;;;;19.50;40.78;101079.09;6284550;22;20494;-77
2021/04/23 10:45:38;;;;;;;10.23;4.50;;;;;;;19.60;40.57;101079.53;6311450;22;20005;-77
2021/04/23 10:48:14;;;;;;;11.37;4.23;;;;;;;19.62;40.72;101073.56;6259954;22;20003;-77
2021/04/23 10:50:59;;;;;;;13.45;4.35;;;;;;;19.55;40.41;101079.72;6312105;22;20030;-77
2021/04/23 10:53:31;;;;;;;11.98;4.55;;;;;;;19.63;40.28;101089.28;6284378;22;20007;-77
2021/04/23 10:56:01;;;;;;;11.82;3.95;;;;;;;19.76;40.22;101078.97;6311246;22;20075;-78
2021/04/23 10:58:29;;;;;;;9.15;4.28;;;;;;;19.81;40.33;101073.94;6284373;22;20056;-77
2021/04/23 11:01:14;;;;;;;13.32;4.07;;;;;;;19.82;40.62;101081.22;6258402;22;20012;-77
2021/04/23 11:03:43;;;;;;;8.85;4.03;;;;;;;19.81;40.32;101090.88;6283818;22;20082;-78
2021/04/23 11:06:12;;;;;;;9.70;4.43;;;;;;;19.82;39.89;101078.41;6208277;22;20014;-78
2021/04/23 11:08:37;;;;;;;14.57;4.30;;;;;;;19.95;39.69;101073.69;6284037;22;20010;-77
2021/04/23 11:11:08;;;;;;;11.38;5.07;;;;;;;20.04;40.47;101074.44;6310871;22;19999;-79
2021/04/23 11:59:21;;;;;;;11.63;4.68;;;;;;;20.68;40.04;101044.94;6334931;22;20035;-80
2021/04/23 12:09:38;;;;;;;16.63;4.90;;;;;;;21.10;38.54;101027.81;6043006;23;20134;-80
2021/04/23 12:12:30;;;;;;;11.88;4.70;;;;;;;21.24;38.92;101026.63;6009636;23;20045;-81
2021/04/23 12:15:19;;;;;;;12.85;5.22;;;;;;;21.08;38.67;101032.97;6083493;23;20070;-81
2021/04/23 12:18:13;;;;;;;9.43;4.60;;;;;;;21.19;38.45;101020.03;6134157;23;20013;-81
2021/04/23 12:20:45;;;;;;;12.75;4.57;;;;;;;21.18;38.60;101018.38;6190759;23;20019;-80
2021/04/23 12:23:30;;;;;;;13.57;4.72;;;;;;;21.31;38.52;101027.69;6140543;23;20484;-80
2021/04/23 12:26:09;;;;;;;10.77;4.80;;;;;;;21.40;39.04;101019.13;6165771;23;20013;-81
2021/04/23 12:28:51;;;;;;;10.68;4.25;;;;;;;21.51;39.51;101022.28;6167428;23;20005;-80
2021/04/23 12:31:56;;;;;;;14.48;5.78;;;;;;;21.38;38.68;101010.16;6165690;23;20064;-80
2021/04/23 12:34:48;;;;;;;13.70;5.07;;;;;;;21.48;38.61;101018.16;6132077;23;20084;-81
2021/04/23 12:37:23;;;;;;;8.68;5.03;;;;;;;21.42;38.41;101014.75;6072871;23;20487;-81
2021/04/23 12:40:02;;;;;;;12.68;4.90;;;;;;;21.55;38.95;101021.19;6074068;23;20010;-81
2021/04/23 12:42:48;;;;;;;12.55;5.18;;;;;;;21.60;39.06;101015.28;6130600;23;20017;-81
2021/04/23 12:45:45;;;;;;;10.32;4.88;;;;;;;21.55;39.12;101011.91;6155744;23;20081;-80
2021/04/23 12:48:11;;;;;;;9.77;4.85;;;;;;;21.50;39.29;101014.97;6128870;23;20086;-80
2021/04/23 12:50:49;;;;;;;13.32;4.93;;;;;;;21.56;39.21;101033.31;6157511;23;20009;-80
2021/04/23 12:53:35;;;;;;;12.82;4.68;;;;;;;21.60;39.10;101015.28;6184552;23;20405;-81
2021/04/23 12:56:01;;;;;;;13.45;5.28;;;;;;;21.62;39.27;101015.78;6132183;23;20048;-80
2021/04/23 12:58:35;;;;;;;15.02;5.53;;;;;;;21.70;38.82;101016.78;6172280;23;20402;-80
2021/04/23 13:01:03;;;;;;;11.50;4.93;;;;;;;21.73;38.78;101009.59;6184993;23;20092;-80
2021/04/23 13:03:32;;;;;;;9.40;4.57;;;;;;;21.73;38.71;101015.25;6155439;23;20017;-81
2021/04/23 13:06:00;;;;;;;11.27;5.18;;;;;;;21.77;39.16;101017.03;6176186;23;20017;-81
2021/04/23 13:09:03;;;;;;;9.85;5.05;;;;;;;21.77;39.15;101019.03;6185248;23;20015;-80
2021/04/23 13:11:32;;;;;;;11.57;4.70;;;;;;;21.78;38.54;101003.69;6185253;23;20092;-80
2021/04/23 13:14:33;;;;;;;9.93;5.18;;;;;;;21.72;38.73;100999.47;6231695;22;20394;-81
2021/04/23 13:17:10;;;;;;;9.48;4.60;;;;;;;21.71;38.49;101011.97;6296586;22;19999;-80
2021/04/23 13:19:41;;;;;;;14.10;4.68;;;;;;;21.72;39.29;100999.47;6339862;22;20054;-80
2021/04/23 13:22:22;;;;;;;10.38;4.70;;;;;;;21.78;38.94;101000.88;6339690;22;20011;-82
2021/04/23 13:25:16;;;;;;;10.15;4.88;;;;;;;21.78;38.85;101006.53;6313936;22;20003;-79
2021/04/23 13:27:44;;;;;;;9.82;4.80;;;;;;;21.72;38.91;100993.84;6292319;22;20060;-78
2021/04/23 13:30:11;;;;;;;9.88;4.18;;;;;;;21.59;39.16;101005.19;6314381;22;20416;-75
2021/04/23 13:32:50;;;;;;;8.85;4.15;;;;;;;21.50;39.17;101004.47;6263091;22;20414;-77
2021/04/23 13:46:12;;;;;;;6.82;4.57;;;;;;;21.46;37.97;100986.59;6343116;22;20439;-78
2021/04/23 13:48:39;;;;;;;7.32;4.53;;;;;;;21.36;37.52;100976.56;6342022;22;20085;-81
2021/04/23 13:51:14;;;;;;;22.80;5.68;;;;;;;21.28;38.86;100983.19;6289613;22;20082;-79
2021/04/23 13:53:43;;;;;;;9.82;4.35;;;;;;;21.32;38.78;100977.66;6317516;22;20002;-77
2021/04/23 13:56:10;;;;;;;11.20;4.55;;;;;;;21.33;38.59;100974.47;6264484;22;20015;-78
2021/04/23 13:59:11;;;;;;;9.05;4.43;;;;;;;21.42;38.31;100980.00;6315113;22;20018;-78
2021/04/23 14:01:48;;;;;;;8.70;4.40;;;;;;;21.35;38.20;100977.75;6341826;22;20003;-78
2021/04/23 14:04:15;;;;;;;8.50;4.53;;;;;;;21.43;37.75;100990.16;6341764;22;20011;-79
2021/04/23 14:06:41;;;;;;;7.05;4.00;;;;;;;21.49;37.78;100983.06;6315599;22;20059;-78
2021/04/23 14:09:08;;;;;;;10.35;4.70;;;;;;;21.55;37.35;100973.16;6315579;22;20006;-78
2021/04/23 14:11:34;;;;;;;9.30;4.47;;;;;;;21.58;37.06;100965.97;6290066;22;20010;-77
2021/04/23 14:14:05;;;;;;;10.20;4.47;;;;;;;21.69;37.95;100963.47;6315630;22;20002;-79
2021/04/23 14:16:31;;;;;;;11.27;4.65;;;;;;;21.61;37.65;100962.41;6341559;22;20015;-79
2021/04/23 14:18:57;;;;;;;8.50;4.00;;;;;;;21.48;37.18;100958.81;6341154;22;20002;-79
2021/04/23 14:21:22;;;;;;;5.95;3.67;;;;;;;21.50;36.98;100959.25;6289857;22;20007;-78
2021/04/23 14:23:48;;;;;;;9.98;4.10;;;;;;;21.51;36.86;100962.94;6340692;22;20397;-77
2021/04/23 14:26:14;;;;;;;6.15;3.83;;;;;;;21.40;37.04;100956.97;6342966;22;20089;-78
2021/04/23 14:28:39;;;;;;;7.07;4.05;;;;;;;21.25;36.83;100954.81;6315396;22;20006;-78
2021/04/23 14:31:08;;;;;;;9.43;3.78;;;;;;;21.26;37.07;100967.78;6314897;22;20035;-78
2021/04/23 14:33:34;;;;;;;8.70;4.30;;;;;;;21.12;36.68;100956.88;6341938;22;20006;-78
2021/04/23 14:36:00;;;;;;;7.72;4.13;;;;;;;21.07;37.00;100960.75;6315198;22;20006;-77
2021/04/23 14:38:25;;;;;;;9.93;3.95;;;;;;;21.07;37.09;100962.75;6341576;22;20060;-77
2021/04/23 14:40:55;;;;;;;10.05;4.30;;;;;;;21.07;37.08;100962.75;6313864;22;20009;-77
2021/04/23 14:43:22;;;;;;;7.07;3.67;;;;;;;21.13;37.62;100962.13;6314702;22;20011;-77
2021/04/23 14:45:48;;;;;;;7.93;3.40;;;;;;;21.13;37.63;100955.69;6341432;22;19998;-77
2021/04/23 14:48:14;;;;;;;9.43;3.55;;;;;;;20.94;37.16;100964.75;6340938;22;20007;-78
2021/04/23 14:50:42;;;;;;;8.15;3.55;;;;;;;20.95;36.86;100955.94;6288820;22;20431;-79
2021/04/23 14:53:08;;;;;;;5.22;2.90;;;;;;;20.96;36.86;100956.75;6315873;22;20003;-77
2021/04/23 14:55:36;;;;;;;7.93;3.38;;;;;;;20.96;36.30;100953.94;6314679;22;20850;-78
2021/04/23 14:58:01;;;;;;;10.02;3.58;;;;;;;20.94;37.04;100947.81;6340840;22;20019;-77
2021/04/23 15:00:28;;;;;;;6.00;3.22;;;;;;;20.97;36.53;100942.25;6289316;22;20045;-78
2021/04/23 15:02:56;;;;;;;7.55;2.80;;;;;;;20.91;36.07;100945.69;6342510;22;20364;-78
2021/04/23 15:05:23;;;;;;;10.13;3.10;;;;;;;20.86;36.23;100941.09;6289777;22;20003;-77